sensor_id;sensor_type;location;lat;lon;timestamp;P1;durP1;ratioP1;P2;durP2;ratioP2
57087;SDS011;42965;52.846;6.614;2023-04-01T00:01:26;14.43;;;11.18;;
57087;SDS011;42965;52.846;6.614;2023-04-01T00:03:55;17.35;;;12.23;;
57087;SDS011;42965;52.846;6.614;2023-04-01T00:06:22;13.95;;;11.43;;
57087;SDS011;42965;52.846;6.614;2023-04-01T00:08:56;17.35;;;11.05;;
57087;SDS011;42965;52.846;6.614;2023-04-01T00:11:22;17.95;;;10.60;;
57087;SDS011;42965;52.846;6.614;2023-04-01T00:13:48;16.13;;;10.57;;
57087;SDS011;42965;52.846;6.614;2023-04-01T00:16:15;16.48;;;10.30;;
57087;SDS011;42965;52.846;6.614;2023-04-01T00:18:44;16.63;;;10.70;;
57087;SDS011;42965;52.846;6.614;2023-04-01T00:21:12;14.15;;;9.82;;
57087;SDS011;42965;52.846;6.614;2023-04-01T00:23:39;15.05;;;9.30;;
57087;SDS011;42965;52.846;6.614;2023-04-01T00:26:05;13.77;;;8.85;;
57087;SDS011;42965;52.846;6.614;2023-04-01T00:28:31;15.20;;;8.45;;
57087;SDS011;42965;52.846;6.614;2023-04-01T00:31:08;16.13;;;9.63;;
57087;SDS011;42965;52.846;6.614;2023-04-01T00:33:36;12.63;;;9.70;;
57087;SDS011;42965;52.846;6.614;2023-04-01T00:36:12;18.10;;;9.88;;
57087;SDS011;42965;52.846;6.614;2023-04-01T00:38:41;14.65;;;9.70;;
57087;SDS011;42965;52.846;6.614;2023-04-01T00:41:08;12.38;;;8.02;;
57087;SDS011;42965;52.846;6.614;2023-04-01T00:43:40;15.18;;;9.38;;
57087;SDS011;42965;52.846;6.614;2023-04-01T00:46:11;15.38;;;9.93;;
57087;SDS011;42965;52.846;6.614;2023-04-01T00:48:38;11.25;;;7.63;;
57087;SDS011;42965;52.846;6.614;2023-04-01T00:51:19;13.27;;;7.80;;
57087;SDS011;42965;52.846;6.614;2023-04-01T00:53:49;9.75;;;6.55;;
57087;SDS011;42965;52.846;6.614;2023-04-01T00:56:22;10.75;;;6.10;;
57087;SDS011;42965;52.846;6.614;2023-04-01T00:59:02;9.25;;;5.88;;
57087;SDS011;42965;52.846;6.614;2023-04-01T01:01:42;6.78;;;4.78;;
57087;SDS011;42965;52.846;6.614;2023-04-01T01:14:53;15.15;;;7.57;;
57087;SDS011;42965;52.846;6.614;2023-04-01T01:31:23;16.63;;;10.98;;
57087;SDS011;42965;52.846;6.614;2023-04-01T01:36:36;17.10;;;11.57;;
57087;SDS011;42965;52.846;6.614;2023-04-01T01:39:08;20.10;;;10.48;;
57087;SDS011;42965;52.846;6.614;2023-04-01T01:41:36;15.20;;;11.15;;
57087;SDS011;42965;52.846;6.614;2023-04-01T01:44:06;17.27;;;11.00;;
57087;SDS011;42965;52.846;6.614;2023-04-01T01:46:35;17.15;;;10.38;;
57087;SDS011;42965;52.846;6.614;2023-04-01T01:49:04;15.73;;;10.93;;
57087;SDS011;42965;52.846;6.614;2023-04-01T01:51:32;15.18;;;10.38;;
57087;SDS011;42965;52.846;6.614;2023-04-01T01:54:02;15.95;;;10.38;;
57087;SDS011;42965;52.846;6.614;2023-04-01T01:56:28;20.15;;;11.57;;
57087;SDS011;42965;52.846;6.614;2023-04-01T01:59:06;18.05;;;11.35;;
57087;SDS011;42965;52.846;6.614;2023-04-01T02:01:37;18.90;;;10.15;;
57087;SDS011;42965;52.846;6.614;2023-04-01T02:04:11;19.90;;;11.02;;
57087;SDS011;42965;52.846;6.614;2023-04-01T02:06:42;17.73;;;11.27;;
57087;SDS011;42965;52.846;6.614;2023-04-01T02:09:24;20.20;;;11.38;;
57087;SDS011;42965;52.846;6.614;2023-04-01T02:11:52;23.08;;;12.15;;
57087;SDS011;42965;52.846;6.614;2023-04-01T02:14:24;15.20;;;10.45;;
57087;SDS011;42965;52.846;6.614;2023-04-01T02:17:00;19.25;;;10.88;;
57087;SDS011;42965;52.846;6.614;2023-04-01T02:19:39;18.73;;;9.85;;
57087;SDS011;42965;52.846;6.614;2023-04-01T02:22:13;19.92;;;11.88;;
57087;SDS011;42965;52.846;6.614;2023-04-01T02:24:43;15.93;;;10.35;;
57087;SDS011;42965;52.846;6.614;2023-04-01T02:27:11;19.90;;;11.73;;
57087;SDS011;42965;52.846;6.614;2023-04-01T02:29:38;19.80;;;12.30;;
57087;SDS011;42965;52.846;6.614;2023-04-01T02:32:07;19.80;;;11.57;;
57087;SDS011;42965;52.846;6.614;2023-04-01T02:34:40;18.30;;;10.50;;
57087;SDS011;42965;52.846;6.614;2023-04-01T02:37:07;21.33;;;11.65;;
57087;SDS011;42965;52.846;6.614;2023-04-01T02:39:34;16.17;;;10.10;;
57087;SDS011;42965;52.846;6.614;2023-04-01T02:42:00;20.42;;;11.23;;
57087;SDS011;42965;52.846;6.614;2023-04-01T02:44:28;22.02;;;11.35;;
57087;SDS011;42965;52.846;6.614;2023-04-01T02:46:56;17.70;;;10.75;;
57087;SDS011;42965;52.846;6.614;2023-04-01T02:49:22;26.40;;;12.98;;
57087;SDS011;42965;52.846;6.614;2023-04-01T02:51:49;19.67;;;10.98;;
57087;SDS011;42965;52.846;6.614;2023-04-01T02:54:15;22.73;;;11.90;;
57087;SDS011;42965;52.846;6.614;2023-04-01T02:56:42;21.67;;;11.15;;
57087;SDS011;42965;52.846;6.614;2023-04-01T02:59:09;18.50;;;11.05;;
57087;SDS011;42965;52.846;6.614;2023-04-01T03:01:35;21.40;;;11.55;;
57087;SDS011;42965;52.846;6.614;2023-04-01T03:04:01;26.70;;;12.50;;
57087;SDS011;42965;52.846;6.614;2023-04-01T03:06:28;20.63;;;11.50;;
57087;SDS011;42965;52.846;6.614;2023-04-01T03:08:54;22.92;;;12.70;;
57087;SDS011;42965;52.846;6.614;2023-04-01T03:11:22;21.80;;;12.18;;
57087;SDS011;42965;52.846;6.614;2023-04-01T03:13:49;25.30;;;13.15;;
57087;SDS011;42965;52.846;6.614;2023-04-01T03:16:15;23.90;;;13.35;;
57087;SDS011;42965;52.846;6.614;2023-04-01T03:18:42;28.00;;;13.55;;
57087;SDS011;42965;52.846;6.614;2023-04-01T03:21:13;21.25;;;12.15;;
57087;SDS011;42965;52.846;6.614;2023-04-01T03:23:44;28.33;;;13.18;;
57087;SDS011;42965;52.846;6.614;2023-04-01T03:26:10;26.23;;;13.07;;
57087;SDS011;42965;52.846;6.614;2023-04-01T03:28:37;27.50;;;13.52;;
57087;SDS011;42965;52.846;6.614;2023-04-01T03:31:03;23.60;;;12.25;;
57087;SDS011;42965;52.846;6.614;2023-04-01T03:33:37;24.30;;;12.40;;
57087;SDS011;42965;52.846;6.614;2023-04-01T03:36:03;21.33;;;11.75;;
57087;SDS011;42965;52.846;6.614;2023-04-01T03:38:35;24.02;;;10.93;;
57087;SDS011;42965;52.846;6.614;2023-04-01T03:41:02;19.83;;;10.45;;
57087;SDS011;42965;52.846;6.614;2023-04-01T03:43:33;17.60;;;10.03;;
57087;SDS011;42965;52.846;6.614;2023-04-01T03:46:00;16.27;;;9.48;;
57087;SDS011;42965;52.846;6.614;2023-04-01T03:48:26;17.70;;;9.75;;
57087;SDS011;42965;52.846;6.614;2023-04-01T03:50:54;21.52;;;9.18;;
57087;SDS011;42965;52.846;6.614;2023-04-01T03:53:21;19.30;;;9.70;;
57087;SDS011;42965;52.846;6.614;2023-04-01T03:55:48;23.65;;;10.02;;
57087;SDS011;42965;52.846;6.614;2023-04-01T03:58:15;15.05;;;8.70;;
57087;SDS011;42965;52.846;6.614;2023-04-01T04:00:41;17.20;;;9.48;;
57087;SDS011;42965;52.846;6.614;2023-04-01T04:03:08;19.77;;;9.13;;
57087;SDS011;42965;52.846;6.614;2023-04-01T04:05:35;20.02;;;8.82;;
57087;SDS011;42965;52.846;6.614;2023-04-01T04:08:02;18.77;;;9.15;;
57087;SDS011;42965;52.846;6.614;2023-04-01T04:10:28;24.48;;;9.75;;
57087;SDS011;42965;52.846;6.614;2023-04-01T04:12:55;20.67;;;9.57;;
57087;SDS011;42965;52.846;6.614;2023-04-01T04:15:23;18.45;;;9.05;;
57087;SDS011;42965;52.846;6.614;2023-04-01T04:17:52;22.70;;;9.95;;
57087;SDS011;42965;52.846;6.614;2023-04-01T04:20:18;21.73;;;9.48;;
57087;SDS011;42965;52.846;6.614;2023-04-01T04:22:45;25.10;;;10.02;;
57087;SDS011;42965;52.846;6.614;2023-04-01T04:25:11;21.15;;;10.15;;
57087;SDS011;42965;52.846;6.614;2023-04-01T04:27:38;24.05;;;10.10;;
57087;SDS011;42965;52.846;6.614;2023-04-01T04:30:07;24.20;;;11.10;;
57087;SDS011;42965;52.846;6.614;2023-04-01T04:32:36;20.70;;;9.70;;
57087;SDS011;42965;52.846;6.614;2023-04-01T04:35:03;26.48;;;11.73;;
57087;SDS011;42965;52.846;6.614;2023-04-01T04:37:32;24.63;;;10.95;;
57087;SDS011;42965;52.846;6.614;2023-04-01T04:39:59;21.08;;;10.30;;
57087;SDS011;42965;52.846;6.614;2023-04-01T04:42:31;31.42;;;12.45;;
57087;SDS011;42965;52.846;6.614;2023-04-01T04:45:03;25.10;;;11.07;;
57087;SDS011;42965;52.846;6.614;2023-04-01T04:47:30;27.73;;;11.50;;
57087;SDS011;42965;52.846;6.614;2023-04-01T04:49:57;23.42;;;10.70;;
57087;SDS011;42965;52.846;6.614;2023-04-01T04:52:34;26.77;;;11.80;;
57087;SDS011;42965;52.846;6.614;2023-04-01T04:55:00;28.85;;;12.27;;
57087;SDS011;42965;52.846;6.614;2023-04-01T04:57:26;29.83;;;12.02;;
57087;SDS011;42965;52.846;6.614;2023-04-01T04:59:54;26.80;;;10.35;;
57087;SDS011;42965;52.846;6.614;2023-04-01T05:02:53;28.00;;;11.65;;
57087;SDS011;42965;52.846;6.614;2023-04-01T05:05:19;28.98;;;10.95;;
57087;SDS011;42965;52.846;6.614;2023-04-01T05:07:45;25.15;;;11.05;;
57087;SDS011;42965;52.846;6.614;2023-04-01T05:10:12;31.75;;;11.20;;
57087;SDS011;42965;52.846;6.614;2023-04-01T05:12:38;28.42;;;11.85;;
57087;SDS011;42965;52.846;6.614;2023-04-01T05:15:08;28.25;;;11.85;;
57087;SDS011;42965;52.846;6.614;2023-04-01T05:17:35;31.10;;;11.27;;
57087;SDS011;42965;52.846;6.614;2023-04-01T05:20:06;29.63;;;11.75;;
57087;SDS011;42965;52.846;6.614;2023-04-01T05:22:33;35.10;;;11.82;;
57087;SDS011;42965;52.846;6.614;2023-04-01T05:24:59;28.00;;;11.80;;
57087;SDS011;42965;52.846;6.614;2023-04-01T05:27:27;31.08;;;12.32;;
57087;SDS011;42965;52.846;6.614;2023-04-01T05:29:53;39.53;;;13.10;;
57087;SDS011;42965;52.846;6.614;2023-04-01T05:32:37;31.45;;;12.20;;
57087;SDS011;42965;52.846;6.614;2023-04-01T05:35:03;26.55;;;10.57;;
57087;SDS011;42965;52.846;6.614;2023-04-01T05:37:30;26.67;;;10.70;;
57087;SDS011;42965;52.846;6.614;2023-04-01T05:40:00;34.58;;;11.55;;
57087;SDS011;42965;52.846;6.614;2023-04-01T05:42:30;23.85;;;10.15;;
57087;SDS011;42965;52.846;6.614;2023-04-01T05:44:57;24.83;;;10.65;;
57087;SDS011;42965;52.846;6.614;2023-04-01T05:48:02;26.52;;;11.38;;
57087;SDS011;42965;52.846;6.614;2023-04-01T05:50:32;23.13;;;11.23;;
57087;SDS011;42965;52.846;6.614;2023-04-01T05:52:59;25.45;;;11.55;;
57087;SDS011;42965;52.846;6.614;2023-04-01T05:55:25;24.77;;;12.57;;
57087;SDS011;42965;52.846;6.614;2023-04-01T05:57:52;29.10;;;14.20;;
57087;SDS011;42965;52.846;6.614;2023-04-01T06:00:18;27.65;;;13.82;;
57087;SDS011;42965;52.846;6.614;2023-04-01T06:02:46;30.63;;;15.15;;
57087;SDS011;42965;52.846;6.614;2023-04-01T06:05:23;32.35;;;15.07;;
57087;SDS011;42965;52.846;6.614;2023-04-01T06:07:55;34.72;;;16.40;;
57087;SDS011;42965;52.846;6.614;2023-04-01T06:13:22;31.83;;;16.73;;
57087;SDS011;42965;52.846;6.614;2023-04-01T06:42:03;31.30;;;15.93;;
57087;SDS011;42965;52.846;6.614;2023-04-01T06:45:15;28.35;;;15.10;;
57087;SDS011;42965;52.846;6.614;2023-04-01T06:51:51;27.27;;;13.18;;
57087;SDS011;42965;52.846;6.614;2023-04-01T06:58:04;22.77;;;13.38;;
57087;SDS011;42965;52.846;6.614;2023-04-01T07:00:39;34.25;;;19.85;;
57087;SDS011;42965;52.846;6.614;2023-04-01T07:06:01;19.23;;;11.13;;
57087;SDS011;42965;52.846;6.614;2023-04-01T07:08:34;22.17;;;13.85;;
57087;SDS011;42965;52.846;6.614;2023-04-01T07:11:05;17.10;;;11.82;;
57087;SDS011;42965;52.846;6.614;2023-04-01T07:19:52;14.43;;;10.45;;
57087;SDS011;42965;52.846;6.614;2023-04-01T07:22:46;17.02;;;12.15;;
57087;SDS011;42965;52.846;6.614;2023-04-01T07:25:31;15.55;;;9.63;;
57087;SDS011;42965;52.846;6.614;2023-04-01T07:28:21;13.82;;;9.40;;
57087;SDS011;42965;52.846;6.614;2023-04-01T07:34:04;16.60;;;12.15;;
57087;SDS011;42965;52.846;6.614;2023-04-01T07:36:33;14.88;;;11.75;;
57087;SDS011;42965;52.846;6.614;2023-04-01T07:50:28;18.08;;;12.20;;
57087;SDS011;42965;52.846;6.614;2023-04-01T07:56:12;13.70;;;9.57;;
57087;SDS011;42965;52.846;6.614;2023-04-01T08:01:40;14.68;;;11.38;;
57087;SDS011;42965;52.846;6.614;2023-04-01T08:13:01;15.30;;;12.60;;
57087;SDS011;42965;52.846;6.614;2023-04-01T08:21:29;13.23;;;10.70;;
57087;SDS011;42965;52.846;6.614;2023-04-01T08:24:06;14.95;;;11.77;;
57087;SDS011;42965;52.846;6.614;2023-04-01T08:26:45;13.55;;;10.88;;
57087;SDS011;42965;52.846;6.614;2023-04-01T08:29:21;18.10;;;13.23;;
57087;SDS011;42965;52.846;6.614;2023-04-01T08:32:01;16.50;;;13.82;;
57087;SDS011;42965;52.846;6.614;2023-04-01T08:34:36;10.55;;;7.80;;
57087;SDS011;42965;52.846;6.614;2023-04-01T08:37:11;12.57;;;10.50;;
57087;SDS011;42965;52.846;6.614;2023-04-01T08:39:48;6.30;;;4.95;;
57087;SDS011;42965;52.846;6.614;2023-04-01T08:51:42;5.88;;;4.15;;
57087;SDS011;42965;52.846;6.614;2023-04-01T08:54:32;5.82;;;4.32;;
57087;SDS011;42965;52.846;6.614;2023-04-01T09:08:51;10.07;;;8.38;;
57087;SDS011;42965;52.846;6.614;2023-04-01T09:15:12;11.15;;;8.63;;
57087;SDS011;42965;52.846;6.614;2023-04-01T09:20:31;10.82;;;8.00;;
57087;SDS011;42965;52.846;6.614;2023-04-01T09:40:58;12.30;;;10.68;;
57087;SDS011;42965;52.846;6.614;2023-04-01T09:43:49;11.60;;;10.07;;
57087;SDS011;42965;52.846;6.614;2023-04-01T10:10:03;12.93;;;11.63;;
57087;SDS011;42965;52.846;6.614;2023-04-01T10:16:14;11.90;;;10.70;;
57087;SDS011;42965;52.846;6.614;2023-04-01T10:21:40;8.68;;;7.78;;
57087;SDS011;42965;52.846;6.614;2023-04-01T10:37:23;11.88;;;10.68;;
57087;SDS011;42965;52.846;6.614;2023-04-01T10:55:48;16.90;;;15.18;;
57087;SDS011;42965;52.846;6.614;2023-04-01T11:05:18;12.82;;;11.52;;
57087;SDS011;42965;52.846;6.614;2023-04-01T11:13:43;10.35;;;9.27;;
57087;SDS011;42965;52.846;6.614;2023-04-01T11:25:09;9.75;;;8.68;;
57087;SDS011;42965;52.846;6.614;2023-04-01T11:40:55;12.70;;;10.85;;
57087;SDS011;42965;52.846;6.614;2023-04-01T11:53:01;10.90;;;9.45;;
57087;SDS011;42965;52.846;6.614;2023-04-01T11:55:32;12.15;;;10.93;;
57087;SDS011;42965;52.846;6.614;2023-04-01T12:06:48;11.77;;;10.38;;
57087;SDS011;42965;52.846;6.614;2023-04-01T12:09:44;10.57;;;9.23;;
57087;SDS011;42965;52.846;6.614;2023-04-01T12:12:57;9.90;;;8.90;;
57087;SDS011;42965;52.846;6.614;2023-04-01T12:15:28;11.85;;;10.68;;
57087;SDS011;42965;52.846;6.614;2023-04-01T12:18:09;14.70;;;12.55;;
57087;SDS011;42965;52.846;6.614;2023-04-01T12:26:27;8.88;;;8.00;;
57087;SDS011;42965;52.846;6.614;2023-04-01T12:52:15;6.33;;;5.50;;
57087;SDS011;42965;52.846;6.614;2023-04-01T12:55:50;9.02;;;8.13;;
57087;SDS011;42965;52.846;6.614;2023-04-01T13:04:13;6.57;;;5.88;;
57087;SDS011;42965;52.846;6.614;2023-04-01T13:11:00;9.32;;;6.93;;
57087;SDS011;42965;52.846;6.614;2023-04-01T13:13:34;10.50;;;9.45;;
57087;SDS011;42965;52.846;6.614;2023-04-01T13:16:14;6.88;;;6.25;;
57087;SDS011;42965;52.846;6.614;2023-04-01T13:21:58;6.57;;;5.88;;
57087;SDS011;42965;52.846;6.614;2023-04-01T13:24:36;7.05;;;6.32;;
57087;SDS011;42965;52.846;6.614;2023-04-01T13:27:34;7.05;;;6.22;;
57087;SDS011;42965;52.846;6.614;2023-04-01T13:43:59;8.13;;;5.65;;
57087;SDS011;42965;52.846;6.614;2023-04-01T13:52:04;6.47;;;5.75;;
57087;SDS011;42965;52.846;6.614;2023-04-01T14:11:13;5.43;;;4.70;;
57087;SDS011;42965;52.846;6.614;2023-04-01T14:25:46;5.55;;;5.03;;
57087;SDS011;42965;52.846;6.614;2023-04-01T14:33:52;5.80;;;4.57;;
57087;SDS011;42965;52.846;6.614;2023-04-01T14:36:39;10.98;;;8.82;;
57087;SDS011;42965;52.846;6.614;2023-04-01T14:44:40;5.57;;;4.70;;
57087;SDS011;42965;52.846;6.614;2023-04-01T14:47:39;10.02;;;7.43;;
57087;SDS011;42965;52.846;6.614;2023-04-01T14:50:18;6.80;;;5.00;;
57087;SDS011;42965;52.846;6.614;2023-04-01T14:52:59;10.45;;;9.30;;
57087;SDS011;42965;52.846;6.614;2023-04-01T14:55:52;11.40;;;9.00;;
57087;SDS011;42965;52.846;6.614;2023-04-01T14:58:22;9.00;;;7.60;;
57087;SDS011;42965;52.846;6.614;2023-04-01T15:01:30;5.75;;;4.75;;
57087;SDS011;42965;52.846;6.614;2023-04-01T15:03:51;12.55;;;10.18;;
57087;SDS011;42965;52.846;6.614;2023-04-01T15:09:25;5.95;;;5.35;;
57087;SDS011;42965;52.846;6.614;2023-04-01T15:17:53;5.13;;;3.88;;
57087;SDS011;42965;52.846;6.614;2023-04-01T15:32:02;4.22;;;3.75;;
57087;SDS011;42965;52.846;6.614;2023-04-01T15:40:46;6.00;;;3.40;;
57087;SDS011;42965;52.846;6.614;2023-04-01T15:43:31;5.65;;;4.75;;
57087;SDS011;42965;52.846;6.614;2023-04-01T15:56:52;4.13;;;3.72;;
57087;SDS011;42965;52.846;6.614;2023-04-01T16:13:59;11.88;;;10.25;;
57087;SDS011;42965;52.846;6.614;2023-04-01T16:25:20;8.65;;;7.18;;
57087;SDS011;42965;52.846;6.614;2023-04-01T16:28:21;7.65;;;5.28;;
57087;SDS011;42965;52.846;6.614;2023-04-01T16:33:44;5.40;;;4.68;;
57087;SDS011;42965;52.846;6.614;2023-04-01T16:36:27;5.30;;;4.50;;
57087;SDS011;42965;52.846;6.614;2023-04-01T16:39:18;5.57;;;4.45;;
57087;SDS011;42965;52.846;6.614;2023-04-01T16:47:22;6.10;;;4.65;;
57087;SDS011;42965;52.846;6.614;2023-04-01T16:52:58;5.13;;;4.50;;
57087;SDS011;42965;52.846;6.614;2023-04-01T16:55:45;8.77;;;7.60;;
57087;SDS011;42965;52.846;6.614;2023-04-01T16:59:14;7.65;;;6.85;;
57087;SDS011;42965;52.846;6.614;2023-04-01T17:01:21;12.02;;;9.73;;
57087;SDS011;42965;52.846;6.614;2023-04-01T17:03:58;12.18;;;10.93;;
57087;SDS011;42965;52.846;6.614;2023-04-01T17:06:55;10.10;;;8.10;;
57087;SDS011;42965;52.846;6.614;2023-04-01T17:09:27;15.68;;;13.57;;
57087;SDS011;42965;52.846;6.614;2023-04-01T17:12:25;10.13;;;7.93;;
57087;SDS011;42965;52.846;6.614;2023-04-01T17:18:02;15.90;;;13.95;;
57087;SDS011;42965;52.846;6.614;2023-04-01T17:23:43;9.43;;;8.18;;
57087;SDS011;42965;52.846;6.614;2023-04-01T17:32:05;6.53;;;5.82;;
57087;SDS011;42965;52.846;6.614;2023-04-01T17:37:11;12.45;;;10.48;;
57087;SDS011;42965;52.846;6.614;2023-04-01T17:40:05;8.30;;;6.55;;
57087;SDS011;42965;52.846;6.614;2023-04-01T17:45:49;11.00;;;9.10;;
57087;SDS011;42965;52.846;6.614;2023-04-01T17:49:00;12.25;;;9.43;;
57087;SDS011;42965;52.846;6.614;2023-04-01T18:00:21;10.68;;;9.07;;
57087;SDS011;42965;52.846;6.614;2023-04-01T18:05:44;11.00;;;9.90;;
57087;SDS011;42965;52.846;6.614;2023-04-01T18:12:00;16.50;;;12.65;;
57087;SDS011;42965;52.846;6.614;2023-04-01T18:14:45;11.80;;;8.93;;
57087;SDS011;42965;52.846;6.614;2023-04-01T18:20:31;11.10;;;9.95;;
57087;SDS011;42965;52.846;6.614;2023-04-01T18:23:02;14.80;;;13.00;;
57087;SDS011;42965;52.846;6.614;2023-04-01T18:26:08;13.57;;;11.15;;
57087;SDS011;42965;52.846;6.614;2023-04-01T18:28:42;18.35;;;14.85;;
57087;SDS011;42965;52.846;6.614;2023-04-01T18:31:19;17.40;;;15.55;;
57087;SDS011;42965;52.846;6.614;2023-04-01T18:33:58;11.80;;;10.60;;
57087;SDS011;42965;52.846;6.614;2023-04-01T18:39:11;12.13;;;9.93;;
57087;SDS011;42965;52.846;6.614;2023-04-01T18:48:00;16.08;;;13.60;;
57087;SDS011;42965;52.846;6.614;2023-04-01T18:53:39;12.68;;;10.07;;
57087;SDS011;42965;52.846;6.614;2023-04-01T18:58:34;17.90;;;12.82;;
57087;SDS011;42965;52.846;6.614;2023-04-01T19:06:45;15.40;;;13.38;;
57087;SDS011;42965;52.846;6.614;2023-04-01T19:09:20;17.42;;;13.45;;
57087;SDS011;42965;52.846;6.614;2023-04-01T19:21:00;18.35;;;14.38;;
57087;SDS011;42965;52.846;6.614;2023-04-01T19:26:40;17.55;;;14.05;;
57087;SDS011;42965;52.846;6.614;2023-04-01T19:31:51;14.23;;;12.80;;
57087;SDS011;42965;52.846;6.614;2023-04-01T19:51:03;16.60;;;12.60;;
57087;SDS011;42965;52.846;6.614;2023-04-01T19:54:01;14.63;;;12.07;;
57087;SDS011;42965;52.846;6.614;2023-04-01T19:56:39;20.25;;;14.77;;
57087;SDS011;42965;52.846;6.614;2023-04-01T19:59:33;13.48;;;10.80;;
57087;SDS011;42965;52.846;6.614;2023-04-01T20:04:53;19.85;;;15.82;;
57087;SDS011;42965;52.846;6.614;2023-04-01T20:07:33;14.85;;;11.98;;
57087;SDS011;42965;52.846;6.614;2023-04-01T20:17:53;14.75;;;11.38;;
57087;SDS011;42965;52.846;6.614;2023-04-01T20:20:26;21.20;;;16.15;;
57087;SDS011;42965;52.846;6.614;2023-04-01T20:25:49;21.67;;;16.13;;
57087;SDS011;42965;52.846;6.614;2023-04-01T20:31:34;18.55;;;15.40;;
57087;SDS011;42965;52.846;6.614;2023-04-01T20:36:55;34.07;;;24.93;;
57087;SDS011;42965;52.846;6.614;2023-04-01T20:39:40;17.40;;;12.60;;
57087;SDS011;42965;52.846;6.614;2023-04-01T20:42:20;23.92;;;14.98;;
57087;SDS011;42965;52.846;6.614;2023-04-01T20:45:15;18.77;;;12.82;;
57087;SDS011;42965;52.846;6.614;2023-04-01T20:50:29;13.25;;;10.55;;
57087;SDS011;42965;52.846;6.614;2023-04-01T20:53:20;19.73;;;14.48;;
57087;SDS011;42965;52.846;6.614;2023-04-01T20:55:55;18.20;;;12.80;;
57087;SDS011;42965;52.846;6.614;2023-04-01T21:26:02;18.80;;;12.93;;
57087;SDS011;42965;52.846;6.614;2023-04-01T21:28:41;21.30;;;14.38;;
57087;SDS011;42965;52.846;6.614;2023-04-01T21:34:34;18.08;;;14.45;;
57087;SDS011;42965;52.846;6.614;2023-04-01T21:49:05;20.65;;;15.02;;
57087;SDS011;42965;52.846;6.614;2023-04-01T22:05:15;16.38;;;10.70;;
57087;SDS011;42965;52.846;6.614;2023-04-01T22:15:48;15.02;;;10.63;;
57087;SDS011;42965;52.846;6.614;2023-04-01T22:18:33;19.30;;;12.70;;
57087;SDS011;42965;52.846;6.614;2023-04-01T22:29:24;18.77;;;10.45;;
57087;SDS011;42965;52.846;6.614;2023-04-01T22:32:16;14.25;;;9.60;;
57087;SDS011;42965;52.846;6.614;2023-04-01T22:34:57;20.77;;;10.77;;
57087;SDS011;42965;52.846;6.614;2023-04-01T22:40:30;16.20;;;11.80;;
57087;SDS011;42965;52.846;6.614;2023-04-01T22:43:06;17.35;;;11.00;;
57087;SDS011;42965;52.846;6.614;2023-04-01T22:48:35;15.40;;;9.90;;
57087;SDS011;42965;52.846;6.614;2023-04-01T22:51:15;14.55;;;10.43;;
57087;SDS011;42965;52.846;6.614;2023-04-01T22:53:54;15.85;;;11.77;;
57087;SDS011;42965;52.846;6.614;2023-04-01T22:56:52;14.07;;;10.85;;
57087;SDS011;42965;52.846;6.614;2023-04-01T22:59:51;11.77;;;9.73;;
57087;SDS011;42965;52.846;6.614;2023-04-01T23:05:18;12.57;;;9.15;;
57087;SDS011;42965;52.846;6.614;2023-04-01T23:07:59;11.07;;;8.93;;
57087;SDS011;42965;52.846;6.614;2023-04-01T23:10:38;13.85;;;9.38;;
57087;SDS011;42965;52.846;6.614;2023-04-01T23:15:56;12.63;;;8.50;;
57087;SDS011;42965;52.846;6.614;2023-04-01T23:18:27;14.55;;;8.75;;
57087;SDS011;42965;52.846;6.614;2023-04-01T23:21:33;10.32;;;8.25;;
57087;SDS011;42965;52.846;6.614;2023-04-01T23:24:25;11.00;;;7.55;;
57087;SDS011;42965;52.846;6.614;2023-04-01T23:27:03;11.80;;;9.00;;
57087;SDS011;42965;52.846;6.614;2023-04-01T23:29:36;14.98;;;8.50;;
57087;SDS011;42965;52.846;6.614;2023-04-01T23:32:24;10.38;;;7.15;;
57087;SDS011;42965;52.846;6.614;2023-04-01T23:34:52;11.95;;;7.55;;
57087;SDS011;42965;52.846;6.614;2023-04-01T23:37:21;14.90;;;8.73;;
57087;SDS011;42965;52.846;6.614;2023-04-01T23:39:56;11.70;;;7.60;;
57087;SDS011;42965;52.846;6.614;2023-04-01T23:42:30;10.90;;;7.30;;
57087;SDS011;42965;52.846;6.614;2023-04-01T23:45:05;13.35;;;8.40;;
57087;SDS011;42965;52.846;6.614;2023-04-01T23:47:39;10.73;;;8.00;;
57087;SDS011;42965;52.846;6.614;2023-04-01T23:50:25;12.63;;;9.15;;
57087;SDS011;42965;52.846;6.614;2023-04-01T23:52:54;10.23;;;7.63;;
57087;SDS011;42965;52.846;6.614;2023-04-01T23:55:29;12.80;;;8.20;;
57087;SDS011;42965;52.846;6.614;2023-04-01T23:58:13;13.73;;;8.63;;
